Terminal Aerodrome Forecast
Issued by NWS

Home | Current Version | Previous Version | Text Only | Print | Product List | Glossary On
Versions: 1 2 3 4 5 6 7 8 9 10 11 12 13 14 15
000
FTUS43 KICT 231123
TAFHUT
TAF
KHUT 231123Z 2312/2412 VRB05KT P6SM SCT060 BKN120
     FM231500 VRB05KT P6SM BKN060
     FM231800 07004KT P6SM SCT250
     FM240500 13004KT P6SM SCT200
     FM241100 VRB03KT P6SM FEW150=

USA.gov is the U.S. government's official web portal to all federal, state and local government web resources and services.